sensor_id;sensor_type;location;lat;lon;timestamp;P1;durP1;ratioP1;P2;durP2;ratioP2
47403;SDS011;33157;51.508;4.288;2023-12-28T00:04:17;7.38;;;2.80;;
47403;SDS011;33157;51.508;4.288;2023-12-28T00:09:19;4.87;;;2.27;;
47403;SDS011;33157;51.508;4.288;2023-12-28T00:14:19;4.05;;;2.42;;
47403;SDS011;33157;51.508;4.288;2023-12-28T00:19:20;6.47;;;2.13;;
47403;SDS011;33157;51.508;4.288;2023-12-28T00:24:21;7.30;;;2.40;;
47403;SDS011;33157;51.508;4.288;2023-12-28T00:29:21;4.30;;;2.65;;
47403;SDS011;33157;51.508;4.288;2023-12-28T00:34:22;7.45;;;2.60;;
47403;SDS011;33157;51.508;4.288;2023-12-28T00:39:22;5.35;;;2.40;;
47403;SDS011;33157;51.508;4.288;2023-12-28T00:44:23;9.85;;;2.58;;
47403;SDS011;33157;51.508;4.288;2023-12-28T00:49:23;7.30;;;3.08;;
47403;SDS011;33157;51.508;4.288;2023-12-28T00:54:23;6.40;;;2.45;;
47403;SDS011;33157;51.508;4.288;2023-12-28T00:59:24;5.82;;;2.38;;
47403;SDS011;33157;51.508;4.288;2023-12-28T01:04:25;7.35;;;2.58;;
47403;SDS011;33157;51.508;4.288;2023-12-28T01:09:25;4.75;;;2.75;;
47403;SDS011;33157;51.508;4.288;2023-12-28T01:14:26;14.60;;;2.40;;
47403;SDS011;33157;51.508;4.288;2023-12-28T01:19:26;6.47;;;2.42;;
47403;SDS011;33157;51.508;4.288;2023-12-28T01:24:26;7.20;;;2.40;;
47403;SDS011;33157;51.508;4.288;2023-12-28T01:29:27;8.63;;;2.40;;
47403;SDS011;33157;51.508;4.288;2023-12-28T01:34:28;3.95;;;2.13;;
47403;SDS011;33157;51.508;4.288;2023-12-28T01:39:29;6.20;;;2.30;;
47403;SDS011;33157;51.508;4.288;2023-12-28T01:44:29;6.03;;;2.10;;
47403;SDS011;33157;51.508;4.288;2023-12-28T01:49:30;8.55;;;2.60;;
47403;SDS011;33157;51.508;4.288;2023-12-28T01:54:30;6.35;;;1.80;;
47403;SDS011;33157;51.508;4.288;2023-12-28T01:59:31;5.70;;;2.42;;
47403;SDS011;33157;51.508;4.288;2023-12-28T02:04:32;4.25;;;1.98;;
47403;SDS011;33157;51.508;4.288;2023-12-28T02:09:32;7.13;;;2.20;;
47403;SDS011;33157;51.508;4.288;2023-12-28T02:14:33;5.28;;;2.38;;
47403;SDS011;33157;51.508;4.288;2023-12-28T02:29:59;8.38;;;2.15;;
47403;SDS011;33157;51.508;4.288;2023-12-28T02:35:03;5.80;;;2.00;;
47403;SDS011;33157;51.508;4.288;2023-12-28T02:40:08;8.52;;;2.10;;
47403;SDS011;33157;51.508;4.288;2023-12-28T02:45:09;5.93;;;2.30;;
47403;SDS011;33157;51.508;4.288;2023-12-28T02:50:10;7.65;;;2.20;;
47403;SDS011;33157;51.508;4.288;2023-12-28T02:55:11;7.55;;;2.47;;
47403;SDS011;33157;51.508;4.288;2023-12-28T03:00:11;5.22;;;2.10;;
47403;SDS011;33157;51.508;4.288;2023-12-28T03:05:12;4.88;;;2.35;;
47403;SDS011;33157;51.508;4.288;2023-12-28T03:10:13;9.20;;;1.92;;
47403;SDS011;33157;51.508;4.288;2023-12-28T03:15:13;8.23;;;2.08;;
47403;SDS011;33157;51.508;4.288;2023-12-28T03:20:16;8.55;;;2.47;;
47403;SDS011;33157;51.508;4.288;2023-12-28T03:25:17;12.43;;;2.60;;
47403;SDS011;33157;51.508;4.288;2023-12-28T03:30:17;8.48;;;2.10;;
47403;SDS011;33157;51.508;4.288;2023-12-28T03:35:18;11.13;;;2.17;;
47403;SDS011;33157;51.508;4.288;2023-12-28T03:40:18;16.58;;;3.28;;
47403;SDS011;33157;51.508;4.288;2023-12-28T03:45:18;5.95;;;2.40;;
47403;SDS011;33157;51.508;4.288;2023-12-28T03:50:20;7.05;;;1.95;;
47403;SDS011;33157;51.508;4.288;2023-12-28T03:55:20;8.38;;;2.17;;
47403;SDS011;33157;51.508;4.288;2023-12-28T04:00:20;8.35;;;2.10;;
47403;SDS011;33157;51.508;4.288;2023-12-28T04:05:23;11.60;;;2.25;;
47403;SDS011;33157;51.508;4.288;2023-12-28T04:10:31;6.68;;;1.70;;
47403;SDS011;33157;51.508;4.288;2023-12-28T04:15:31;9.85;;;2.30;;
47403;SDS011;33157;51.508;4.288;2023-12-28T04:20:32;10.63;;;2.00;;
47403;SDS011;33157;51.508;4.288;2023-12-28T04:25:32;12.95;;;1.98;;
47403;SDS011;33157;51.508;4.288;2023-12-28T04:30:33;8.38;;;2.00;;
47403;SDS011;33157;51.508;4.288;2023-12-28T04:35:33;9.93;;;2.72;;
47403;SDS011;33157;51.508;4.288;2023-12-28T04:40:34;11.68;;;2.80;;
47403;SDS011;33157;51.508;4.288;2023-12-28T04:45:34;15.18;;;2.78;;
47403;SDS011;33157;51.508;4.288;2023-12-28T04:50:35;14.10;;;2.78;;
47403;SDS011;33157;51.508;4.288;2023-12-28T04:55:35;10.40;;;2.42;;
47403;SDS011;33157;51.508;4.288;2023-12-28T05:00:36;10.88;;;2.08;;
47403;SDS011;33157;51.508;4.288;2023-12-28T05:05:37;9.07;;;2.70;;
47403;SDS011;33157;51.508;4.288;2023-12-28T05:10:37;13.80;;;3.55;;
47403;SDS011;33157;51.508;4.288;2023-12-28T05:15:37;14.98;;;2.40;;
47403;SDS011;33157;51.508;4.288;2023-12-28T05:20:38;11.27;;;2.15;;
47403;SDS011;33157;51.508;4.288;2023-12-28T05:25:39;14.65;;;2.97;;
47403;SDS011;33157;51.508;4.288;2023-12-28T05:30:40;14.00;;;2.85;;
47403;SDS011;33157;51.508;4.288;2023-12-28T05:35:40;16.70;;;2.65;;
47403;SDS011;33157;51.508;4.288;2023-12-28T05:40:41;8.63;;;2.15;;
47403;SDS011;33157;51.508;4.288;2023-12-28T05:45:41;16.00;;;2.50;;
47403;SDS011;33157;51.508;4.288;2023-12-28T05:50:42;16.30;;;3.00;;
47403;SDS011;33157;51.508;4.288;2023-12-28T05:55:42;16.00;;;4.65;;
47403;SDS011;33157;51.508;4.288;2023-12-28T06:00:43;14.75;;;2.83;;
47403;SDS011;33157;51.508;4.288;2023-12-28T06:05:43;20.27;;;2.95;;
47403;SDS011;33157;51.508;4.288;2023-12-28T06:10:45;13.00;;;3.47;;
47403;SDS011;33157;51.508;4.288;2023-12-28T06:15:45;15.20;;;2.42;;
47403;SDS011;33157;51.508;4.288;2023-12-28T06:20:46;16.30;;;3.00;;
47403;SDS011;33157;51.508;4.288;2023-12-28T06:25:46;17.88;;;2.63;;
47403;SDS011;33157;51.508;4.288;2023-12-28T06:30:47;17.17;;;2.75;;
47403;SDS011;33157;51.508;4.288;2023-12-28T06:35:47;19.48;;;3.10;;
47403;SDS011;33157;51.508;4.288;2023-12-28T06:40:48;16.05;;;2.95;;
47403;SDS011;33157;51.508;4.288;2023-12-28T06:45:48;20.63;;;3.58;;
47403;SDS011;33157;51.508;4.288;2023-12-28T06:50:49;21.00;;;2.78;;
47403;SDS011;33157;51.508;4.288;2023-12-28T06:55:49;14.93;;;2.58;;
47403;SDS011;33157;51.508;4.288;2023-12-28T07:00:49;13.73;;;2.75;;
47403;SDS011;33157;51.508;4.288;2023-12-28T07:05:50;11.98;;;2.58;;
47403;SDS011;33157;51.508;4.288;2023-12-28T07:10:51;19.30;;;3.75;;
47403;SDS011;33157;51.508;4.288;2023-12-28T07:15:51;22.20;;;3.72;;
47403;SDS011;33157;51.508;4.288;2023-12-28T07:20:53;27.70;;;3.03;;
47403;SDS011;33157;51.508;4.288;2023-12-28T07:25:54;11.35;;;3.00;;
47403;SDS011;33157;51.508;4.288;2023-12-28T07:30:54;17.58;;;3.85;;
47403;SDS011;33157;51.508;4.288;2023-12-28T07:35:55;17.00;;;3.22;;
47403;SDS011;33157;51.508;4.288;2023-12-28T07:40:55;16.20;;;2.90;;
47403;SDS011;33157;51.508;4.288;2023-12-28T07:45:56;20.23;;;3.15;;
47403;SDS011;33157;51.508;4.288;2023-12-28T07:50:57;24.13;;;3.50;;
47403;SDS011;33157;51.508;4.288;2023-12-28T07:55:58;18.43;;;3.47;;
47403;SDS011;33157;51.508;4.288;2023-12-28T08:00:58;22.48;;;3.83;;
47403;SDS011;33157;51.508;4.288;2023-12-28T08:05:58;14.77;;;3.53;;
47403;SDS011;33157;51.508;4.288;2023-12-28T08:10:59;20.77;;;4.07;;
47403;SDS011;33157;51.508;4.288;2023-12-28T08:15:59;15.80;;;3.60;;
47403;SDS011;33157;51.508;4.288;2023-12-28T08:21:00;26.15;;;4.13;;
47403;SDS011;33157;51.508;4.288;2023-12-28T08:26:00;16.55;;;3.13;;
47403;SDS011;33157;51.508;4.288;2023-12-28T08:31:01;15.77;;;3.13;;
47403;SDS011;33157;51.508;4.288;2023-12-28T08:36:04;17.17;;;3.35;;
47403;SDS011;33157;51.508;4.288;2023-12-28T08:41:06;17.05;;;4.95;;
47403;SDS011;33157;51.508;4.288;2023-12-28T08:46:09;14.02;;;3.17;;
47403;SDS011;33157;51.508;4.288;2023-12-28T08:51:09;18.70;;;4.10;;
47403;SDS011;33157;51.508;4.288;2023-12-28T08:56:17;21.67;;;3.73;;
47403;SDS011;33157;51.508;4.288;2023-12-28T09:01:19;16.42;;;3.35;;
47403;SDS011;33157;51.508;4.288;2023-12-28T09:06:21;19.27;;;3.30;;
47403;SDS011;33157;51.508;4.288;2023-12-28T09:11:22;19.80;;;4.10;;
47403;SDS011;33157;51.508;4.288;2023-12-28T09:16:22;19.75;;;3.55;;
47403;SDS011;33157;51.508;4.288;2023-12-28T09:21:23;17.52;;;4.15;;
47403;SDS011;33157;51.508;4.288;2023-12-28T09:26:25;17.70;;;3.67;;
47403;SDS011;33157;51.508;4.288;2023-12-28T09:31:26;18.83;;;3.35;;
47403;SDS011;33157;51.508;4.288;2023-12-28T09:36:26;20.77;;;3.42;;
47403;SDS011;33157;51.508;4.288;2023-12-28T09:41:27;20.75;;;3.67;;
47403;SDS011;33157;51.508;4.288;2023-12-28T09:51:30;17.25;;;2.97;;
47403;SDS011;33157;51.508;4.288;2023-12-28T09:56:31;26.58;;;3.95;;
47403;SDS011;33157;51.508;4.288;2023-12-28T10:06:34;24.83;;;4.40;;
47403;SDS011;33157;51.508;4.288;2023-12-28T10:11:34;22.45;;;3.53;;
47403;SDS011;33157;51.508;4.288;2023-12-28T10:16:35;16.50;;;3.38;;
47403;SDS011;33157;51.508;4.288;2023-12-28T10:21:36;17.70;;;3.85;;
47403;SDS011;33157;51.508;4.288;2023-12-28T10:26:39;18.13;;;3.58;;
47403;SDS011;33157;51.508;4.288;2023-12-28T10:31:43;17.08;;;2.95;;
47403;SDS011;33157;51.508;4.288;2023-12-28T10:36:50;22.45;;;3.83;;
47403;SDS011;33157;51.508;4.288;2023-12-28T10:41:52;21.17;;;3.30;;
47403;SDS011;33157;51.508;4.288;2023-12-28T10:46:55;23.42;;;3.88;;
47403;SDS011;33157;51.508;4.288;2023-12-28T10:51:58;17.33;;;3.58;;
47403;SDS011;33157;51.508;4.288;2023-12-28T10:57:06;22.40;;;5.43;;
47403;SDS011;33157;51.508;4.288;2023-12-28T11:02:10;22.30;;;5.28;;
47403;SDS011;33157;51.508;4.288;2023-12-28T11:07:12;22.70;;;4.50;;
47403;SDS011;33157;51.508;4.288;2023-12-28T11:12:15;25.83;;;4.22;;
47403;SDS011;33157;51.508;4.288;2023-12-28T11:17:18;21.60;;;4.00;;
47403;SDS011;33157;51.508;4.288;2023-12-28T11:22:19;21.25;;;4.05;;
47403;SDS011;33157;51.508;4.288;2023-12-28T11:32:22;21.70;;;5.07;;
47403;SDS011;33157;51.508;4.288;2023-12-28T11:37:23;22.80;;;4.18;;
47403;SDS011;33157;51.508;4.288;2023-12-28T11:42:23;27.88;;;4.28;;
47403;SDS011;33157;51.508;4.288;2023-12-28T11:47:24;20.10;;;4.43;;
47403;SDS011;33157;51.508;4.288;2023-12-28T11:52:27;19.17;;;4.03;;
47403;SDS011;33157;51.508;4.288;2023-12-28T11:57:29;13.93;;;3.88;;
47403;SDS011;33157;51.508;4.288;2023-12-28T12:02:29;23.02;;;3.92;;
47403;SDS011;33157;51.508;4.288;2023-12-28T12:07:30;21.02;;;5.00;;
47403;SDS011;33157;51.508;4.288;2023-12-28T12:12:30;23.30;;;4.68;;
47403;SDS011;33157;51.508;4.288;2023-12-28T12:17:31;22.25;;;3.97;;
47403;SDS011;33157;51.508;4.288;2023-12-28T12:22:31;23.98;;;4.40;;
47403;SDS011;33157;51.508;4.288;2023-12-28T12:27:32;22.25;;;3.90;;
47403;SDS011;33157;51.508;4.288;2023-12-28T12:32:33;22.73;;;5.15;;
47403;SDS011;33157;51.508;4.288;2023-12-28T12:37:37;25.67;;;4.47;;
47403;SDS011;33157;51.508;4.288;2023-12-28T12:42:38;21.20;;;3.78;;
47403;SDS011;33157;51.508;4.288;2023-12-28T12:47:38;22.20;;;3.38;;
47403;SDS011;33157;51.508;4.288;2023-12-28T12:52:39;22.73;;;4.50;;
47403;SDS011;33157;51.508;4.288;2023-12-28T12:57:40;28.40;;;5.50;;
47403;SDS011;33157;51.508;4.288;2023-12-28T13:02:41;20.85;;;3.85;;
47403;SDS011;33157;51.508;4.288;2023-12-28T13:07:41;22.85;;;4.32;;
47403;SDS011;33157;51.508;4.288;2023-12-28T13:12:42;28.98;;;4.60;;
47403;SDS011;33157;51.508;4.288;2023-12-28T13:17:42;27.90;;;4.35;;
47403;SDS011;33157;51.508;4.288;2023-12-28T13:22:43;21.58;;;4.43;;
47403;SDS011;33157;51.508;4.288;2023-12-28T13:27:47;23.30;;;3.97;;
47403;SDS011;33157;51.508;4.288;2023-12-28T13:32:47;20.50;;;4.43;;
47403;SDS011;33157;51.508;4.288;2023-12-28T13:37:48;22.70;;;3.90;;
47403;SDS011;33157;51.508;4.288;2023-12-28T13:42:48;25.17;;;3.83;;
47403;SDS011;33157;51.508;4.288;2023-12-28T13:47:49;19.98;;;3.88;;
47403;SDS011;33157;51.508;4.288;2023-12-28T13:52:49;26.77;;;4.93;;
47403;SDS011;33157;51.508;4.288;2023-12-28T13:57:50;25.63;;;5.05;;
47403;SDS011;33157;51.508;4.288;2023-12-28T14:02:50;20.95;;;4.47;;
47403;SDS011;33157;51.508;4.288;2023-12-28T14:07:52;27.48;;;3.60;;
47403;SDS011;33157;51.508;4.288;2023-12-28T14:12:53;22.83;;;3.53;;
47403;SDS011;33157;51.508;4.288;2023-12-28T14:17:53;24.63;;;5.07;;
47403;SDS011;33157;51.508;4.288;2023-12-28T14:22:54;20.63;;;3.80;;
47403;SDS011;33157;51.508;4.288;2023-12-28T14:27:54;19.83;;;3.92;;
47403;SDS011;33157;51.508;4.288;2023-12-28T14:32:55;18.50;;;4.20;;
47403;SDS011;33157;51.508;4.288;2023-12-28T14:37:55;26.58;;;4.40;;
47403;SDS011;33157;51.508;4.288;2023-12-28T14:42:56;19.77;;;4.65;;
47403;SDS011;33157;51.508;4.288;2023-12-28T14:47:57;17.95;;;3.47;;
47403;SDS011;33157;51.508;4.288;2023-12-28T14:52:57;22.67;;;3.88;;
47403;SDS011;33157;51.508;4.288;2023-12-28T14:57:58;15.90;;;3.35;;
47403;SDS011;33157;51.508;4.288;2023-12-28T15:02:59;20.38;;;5.25;;
47403;SDS011;33157;51.508;4.288;2023-12-28T15:07:59;18.48;;;3.78;;
47403;SDS011;33157;51.508;4.288;2023-12-28T15:13:00;18.03;;;3.20;;
47403;SDS011;33157;51.508;4.288;2023-12-28T15:18:00;20.45;;;4.00;;
47403;SDS011;33157;51.508;4.288;2023-12-28T15:23:01;21.55;;;4.05;;
47403;SDS011;33157;51.508;4.288;2023-12-28T15:28:02;17.40;;;3.17;;
47403;SDS011;33157;51.508;4.288;2023-12-28T15:33:03;24.92;;;4.43;;
47403;SDS011;33157;51.508;4.288;2023-12-28T15:38:03;19.42;;;3.65;;
47403;SDS011;33157;51.508;4.288;2023-12-28T15:43:03;15.68;;;2.97;;
47403;SDS011;33157;51.508;4.288;2023-12-28T15:48:04;30.37;;;4.80;;
47403;SDS011;33157;51.508;4.288;2023-12-28T15:53:05;15.35;;;3.67;;
47403;SDS011;33157;51.508;4.288;2023-12-28T15:58:05;26.73;;;4.65;;
47403;SDS011;33157;51.508;4.288;2023-12-28T16:03:06;21.42;;;4.30;;
47403;SDS011;33157;51.508;4.288;2023-12-28T16:08:06;18.20;;;4.88;;
47403;SDS011;33157;51.508;4.288;2023-12-28T16:13:07;20.95;;;3.75;;
47403;SDS011;33157;51.508;4.288;2023-12-28T16:18:07;14.95;;;3.15;;
47403;SDS011;33157;51.508;4.288;2023-12-28T16:23:08;21.50;;;3.63;;
47403;SDS011;33157;51.508;4.288;2023-12-28T16:28:09;18.92;;;3.55;;
47403;SDS011;33157;51.508;4.288;2023-12-28T16:33:09;19.80;;;3.80;;
47403;SDS011;33157;51.508;4.288;2023-12-28T16:38:09;19.08;;;3.60;;
47403;SDS011;33157;51.508;4.288;2023-12-28T16:43:10;17.10;;;2.90;;
47403;SDS011;33157;51.508;4.288;2023-12-28T16:48:10;15.67;;;3.60;;
47403;SDS011;33157;51.508;4.288;2023-12-28T16:53:10;18.90;;;3.53;;
47403;SDS011;33157;51.508;4.288;2023-12-28T16:58:11;17.25;;;3.00;;
47403;SDS011;33157;51.508;4.288;2023-12-28T17:03:11;42.13;;;12.38;;
47403;SDS011;33157;51.508;4.288;2023-12-28T17:08:12;24.05;;;4.45;;
47403;SDS011;33157;51.508;4.288;2023-12-28T17:13:13;23.58;;;4.28;;
47403;SDS011;33157;51.508;4.288;2023-12-28T17:18:14;14.23;;;4.35;;
47403;SDS011;33157;51.508;4.288;2023-12-28T17:23:16;24.67;;;4.80;;
47403;SDS011;33157;51.508;4.288;2023-12-28T17:28:42;16.65;;;3.33;;
47403;SDS011;33157;51.508;4.288;2023-12-28T17:33:55;16.80;;;3.17;;
47403;SDS011;33157;51.508;4.288;2023-12-28T17:38:55;19.25;;;3.70;;
47403;SDS011;33157;51.508;4.288;2023-12-28T17:44:08;18.90;;;3.90;;
47403;SDS011;33157;51.508;4.288;2023-12-28T17:49:11;19.65;;;4.20;;
47403;SDS011;33157;51.508;4.288;2023-12-28T17:54:12;19.80;;;3.95;;
47403;SDS011;33157;51.508;4.288;2023-12-28T17:59:13;12.25;;;2.55;;
47403;SDS011;33157;51.508;4.288;2023-12-28T18:04:13;18.50;;;3.88;;
47403;SDS011;33157;51.508;4.288;2023-12-28T18:09:13;17.30;;;3.30;;
47403;SDS011;33157;51.508;4.288;2023-12-28T18:14:17;10.95;;;2.72;;
47403;SDS011;33157;51.508;4.288;2023-12-28T18:19:18;18.45;;;3.53;;
47403;SDS011;33157;51.508;4.288;2023-12-28T18:24:18;14.65;;;2.72;;
47403;SDS011;33157;51.508;4.288;2023-12-28T18:29:19;16.23;;;4.05;;
47403;SDS011;33157;51.508;4.288;2023-12-28T18:34:19;20.80;;;4.03;;
47403;SDS011;33157;51.508;4.288;2023-12-28T18:39:20;17.70;;;3.45;;
47403;SDS011;33157;51.508;4.288;2023-12-28T18:44:25;12.55;;;3.35;;
47403;SDS011;33157;51.508;4.288;2023-12-28T18:49:32;22.13;;;4.95;;
47403;SDS011;33157;51.508;4.288;2023-12-28T18:54:32;16.23;;;4.05;;
47403;SDS011;33157;51.508;4.288;2023-12-28T18:59:33;21.63;;;2.83;;
47403;SDS011;33157;51.508;4.288;2023-12-28T19:04:33;15.27;;;3.08;;
47403;SDS011;33157;51.508;4.288;2023-12-28T19:09:36;24.88;;;4.03;;
47403;SDS011;33157;51.508;4.288;2023-12-28T19:14:39;20.83;;;3.28;;
47403;SDS011;33157;51.508;4.288;2023-12-28T19:19:41;24.05;;;3.50;;
47403;SDS011;33157;51.508;4.288;2023-12-28T19:24:41;15.65;;;3.22;;
47403;SDS011;33157;51.508;4.288;2023-12-28T19:29:41;24.55;;;3.80;;
47403;SDS011;33157;51.508;4.288;2023-12-28T19:34:42;13.77;;;3.15;;
47403;SDS011;33157;51.508;4.288;2023-12-28T19:39:43;11.93;;;2.90;;
47403;SDS011;33157;51.508;4.288;2023-12-28T19:44:47;13.82;;;2.55;;
47403;SDS011;33157;51.508;4.288;2023-12-28T19:49:49;18.52;;;3.63;;
47403;SDS011;33157;51.508;4.288;2023-12-28T19:54:50;19.30;;;3.83;;
47403;SDS011;33157;51.508;4.288;2023-12-28T19:59:51;17.42;;;3.58;;
47403;SDS011;33157;51.508;4.288;2023-12-28T20:04:52;18.95;;;3.03;;
47403;SDS011;33157;51.508;4.288;2023-12-28T20:09:55;16.50;;;2.97;;
47403;SDS011;33157;51.508;4.288;2023-12-28T20:14:56;12.95;;;3.05;;
47403;SDS011;33157;51.508;4.288;2023-12-28T20:19:56;17.15;;;2.58;;
47403;SDS011;33157;51.508;4.288;2023-12-28T20:24:59;15.20;;;2.85;;
47403;SDS011;33157;51.508;4.288;2023-12-28T20:30:00;12.15;;;2.65;;
47403;SDS011;33157;51.508;4.288;2023-12-28T20:35:00;15.82;;;4.20;;
47403;SDS011;33157;51.508;4.288;2023-12-28T20:40:00;12.55;;;2.80;;
47403;SDS011;33157;51.508;4.288;2023-12-28T20:45:02;16.17;;;2.70;;
47403;SDS011;33157;51.508;4.288;2023-12-28T20:50:03;21.48;;;4.20;;
47403;SDS011;33157;51.508;4.288;2023-12-28T20:55:07;16.15;;;3.92;;
47403;SDS011;33157;51.508;4.288;2023-12-28T21:00:11;14.88;;;3.10;;
47403;SDS011;33157;51.508;4.288;2023-12-28T21:05:12;17.23;;;2.60;;
47403;SDS011;33157;51.508;4.288;2023-12-28T21:10:12;18.40;;;3.92;;
47403;SDS011;33157;51.508;4.288;2023-12-28T21:15:13;15.05;;;2.97;;
47403;SDS011;33157;51.508;4.288;2023-12-28T21:20:17;14.75;;;2.40;;
47403;SDS011;33157;51.508;4.288;2023-12-28T21:25:17;14.45;;;3.63;;
47403;SDS011;33157;51.508;4.288;2023-12-28T21:36:27;15.63;;;2.67;;
47403;SDS011;33157;51.508;4.288;2023-12-28T21:53:41;23.17;;;3.50;;
47403;SDS011;33157;51.508;4.288;2023-12-28T21:58:42;17.60;;;3.28;;
47403;SDS011;33157;51.508;4.288;2023-12-28T22:03:43;16.73;;;3.42;;
47403;SDS011;33157;51.508;4.288;2023-12-28T22:08:43;22.08;;;3.17;;
47403;SDS011;33157;51.508;4.288;2023-12-28T22:13:44;17.30;;;3.92;;
47403;SDS011;33157;51.508;4.288;2023-12-28T22:18:44;13.48;;;3.03;;
47403;SDS011;33157;51.508;4.288;2023-12-28T22:23:45;18.63;;;3.60;;
47403;SDS011;33157;51.508;4.288;2023-12-28T22:28:46;14.85;;;2.55;;
47403;SDS011;33157;51.508;4.288;2023-12-28T22:33:47;13.52;;;2.40;;
47403;SDS011;33157;51.508;4.288;2023-12-28T22:38:48;15.98;;;3.30;;
47403;SDS011;33157;51.508;4.288;2023-12-28T22:43:48;19.08;;;3.10;;
47403;SDS011;33157;51.508;4.288;2023-12-28T22:48:48;18.17;;;2.90;;
47403;SDS011;33157;51.508;4.288;2023-12-28T22:53:49;14.57;;;2.30;;
47403;SDS011;33157;51.508;4.288;2023-12-28T22:58:49;12.52;;;2.55;;
47403;SDS011;33157;51.508;4.288;2023-12-28T23:03:50;14.52;;;3.20;;
47403;SDS011;33157;51.508;4.288;2023-12-28T23:08:50;17.98;;;2.97;;
47403;SDS011;33157;51.508;4.288;2023-12-28T23:13:51;15.07;;;2.88;;
47403;SDS011;33157;51.508;4.288;2023-12-28T23:18:52;20.30;;;3.78;;
47403;SDS011;33157;51.508;4.288;2023-12-28T23:23:52;14.63;;;2.95;;
47403;SDS011;33157;51.508;4.288;2023-12-28T23:28:53;14.02;;;3.00;;
47403;SDS011;33157;51.508;4.288;2023-12-28T23:33:53;15.23;;;2.55;;
47403;SDS011;33157;51.508;4.288;2023-12-28T23:38:53;13.68;;;2.30;;
47403;SDS011;33157;51.508;4.288;2023-12-28T23:43:54;14.35;;;3.00;;
47403;SDS011;33157;51.508;4.288;2023-12-28T23:48:54;20.42;;;3.05;;
47403;SDS011;33157;51.508;4.288;2023-12-28T23:53:55;20.05;;;3.25;;
47403;SDS011;33157;51.508;4.288;2023-12-28T23:58:55;16.05;;;3.67;;
